Time;durP1;ratioP1;P1;durP2;ratioP2;P2;SDS_P1;SDS_P2;PMS_P1;PMS_P2;Temp;Humidity;BMP_temperature;BMP_pressure;BME280_temperature;BME280_humidity;BME280_pressure;Samples;Min_cycle;Max_cycle;Signal;HPM_P1;HPM_P2
2022/01/18 00:00:14;;;;;;;4.03;2.20;;;;;;;2.93;91.26;103754.88;5052315;28;20318;-86
2022/01/18 00:02:39;;;;;;;2.20;2.00;;;;;;;2.94;91.12;103754.06;5052775;28;20021;-86
2022/01/18 00:05:07;;;;;;;2.50;2.10;;;;;;;3.00;91.08;103752.69;5052355;28;20024;-85
2022/01/18 00:07:32;;;;;;;3.17;2.20;;;;;;;2.98;91.31;103747.47;5052878;28;20497;-85
2022/01/18 00:09:58;;;;;;;2.63;2.00;;;;;;;3.05;91.50;103756.44;5060364;28;20130;-85
2022/01/18 00:18:06;;;;;;;3.05;2.10;;;;;;;3.08;91.59;103752.41;5073138;28;20036;-86
2022/01/18 00:23:21;;;;;;;2.08;1.80;;;;;;;3.15;91.43;103760.47;5072950;28;20040;-85
2022/01/18 00:25:51;;;;;;;2.35;2.10;;;;;;;3.19;91.28;103765.00;5074418;28;20038;-85
2022/01/18 00:28:25;;;;;;;2.10;1.90;;;;;;;3.22;91.43;103760.03;5075967;28;20017;-86
2022/01/18 00:33:27;;;;;;;3.50;2.10;;;;;;;3.24;91.97;103758.47;5075808;28;20036;-86
2022/01/18 00:36:00;;;;;;;3.33;2.05;;;;;;;3.28;91.59;103760.44;5076691;28;20028;-85
2022/01/18 00:38:48;;;;;;;4.05;2.47;;;;;;;3.28;92.02;103767.25;5057455;28;20576;-85
2022/01/18 00:41:15;;;;;;;2.95;2.10;;;;;;;3.36;91.85;103781.47;5088389;28;20435;-86
2022/01/18 00:43:40;;;;;;;3.20;1.90;;;;;;;3.34;91.86;103783.03;5096827;28;20085;-86
2022/01/18 00:46:26;;;;;;;3.70;2.25;;;;;;;3.42;91.94;103781.81;5095927;28;20031;-86
2022/01/18 00:48:55;;;;;;;5.53;2.40;;;;;;;3.37;92.17;103767.84;5095702;28;20115;-85
2022/01/18 00:51:20;;;;;;;3.85;2.25;;;;;;;3.45;91.69;103782.03;5096399;28;20293;-85
2022/01/18 00:53:46;;;;;;;4.03;2.28;;;;;;;3.46;91.71;103782.91;5096417;28;20432;-85
2022/01/18 00:58:43;;;;;;;3.95;2.40;;;;;;;3.50;91.62;103798.59;5096606;28;20034;-86
2022/01/18 01:01:12;;;;;;;3.17;2.30;;;;;;;3.50;91.82;103803.72;5096079;28;20027;-85
2022/01/18 01:03:48;;;;;;;4.05;2.17;;;;;;;3.50;91.91;103798.59;5096654;28;20520;-86
2022/01/18 01:06:14;;;;;;;2.45;2.15;;;;;;;3.54;91.91;103795.44;5096262;28;20024;-86
2022/01/18 01:08:39;;;;;;;3.40;2.22;;;;;;;3.54;91.80;103784.28;5095594;28;20447;-85
2022/01/18 01:11:08;;;;;;;2.92;1.98;;;;;;;3.56;91.84;103782.66;5077635;28;20048;-86
2022/01/18 01:13:55;;;;;;;3.00;2.10;;;;;;;3.57;91.68;103787.00;5075657;28;20063;-86
2022/01/18 01:36:34;;;;;;;3.13;2.10;;;;;;;3.70;92.06;103770.69;5067771;28;20420;-85
2022/01/18 01:44:46;;;;;;;3.28;2.40;;;;;;;3.71;91.74;103777.59;5075218;28;20043;-85
2022/01/18 01:46:57;;;;;;;2.10;1.90;;;;;;;3.65;92.21;103772.06;5059542;28;20116;-85
2022/01/18 01:49:24;;;;;;;2.90;2.10;;;;;;;3.71;92.04;103780.16;5075002;28;20029;-86
2022/01/18 01:52:04;;;;;;;4.50;2.30;;;;;;;3.72;92.11;103774.22;5074512;28;20021;-86
2022/01/18 01:54:29;;;;;;;2.88;2.17;;;;;;;3.68;92.15;103762.00;5074859;28;20024;-86
2022/01/18 01:56:55;;;;;;;4.47;2.40;;;;;;;3.75;92.42;103769.28;5074972;28;20031;-86
2022/01/18 01:59:20;;;;;;;5.05;2.20;;;;;;;3.76;92.09;103768.47;5073923;28;20024;-86
2022/01/18 02:01:48;;;;;;;3.05;2.17;;;;;;;3.76;92.43;103771.03;5074850;28;20032;-86
2022/01/18 02:04:24;;;;;;;3.90;2.30;;;;;;;3.78;92.40;103774.59;5070668;28;20537;-85
2022/01/18 02:06:49;;;;;;;2.85;2.20;;;;;;;3.78;92.34;103781.41;5072512;28;20017;-85
2022/01/18 02:09:15;;;;;;;3.35;2.10;;;;;;;3.82;92.42;103791.97;5074634;28;20020;-85
2022/01/18 02:11:40;;;;;;;2.63;2.10;;;;;;;3.80;92.00;103784.94;5093324;28;20040;-85
2022/01/18 02:14:11;;;;;;;2.45;2.00;;;;;;;3.83;92.24;103782.56;5092630;28;20039;-85
2022/01/18 02:22:29;;;;;;;5.20;2.45;;;;;;;3.82;92.88;103771.44;5095090;28;20039;-86
2022/01/18 02:24:54;;;;;;;5.25;2.35;;;;;;;3.86;92.56;103782.78;5094880;28;20019;-86
2022/01/18 02:27:19;;;;;;;3.80;2.50;;;;;;;3.84;92.52;103780.09;5093825;28;20539;-85
2022/01/18 02:29:45;;;;;;;4.05;2.60;;;;;;;3.90;92.38;103781.25;5094811;28;20027;-86
2022/01/18 02:32:10;;;;;;;3.58;2.42;;;;;;;3.89;92.70;103784.63;5094356;28;20028;-86
2022/01/18 02:34:47;;;;;;;2.92;2.05;;;;;;;3.89;92.43;103774.34;5087016;28;20039;-86
2022/01/18 02:37:14;;;;;;;3.40;2.15;;;;;;;3.84;92.28;103769.81;5067016;28;20025;-85
2022/01/18 02:39:39;;;;;;;;;;;;;;;3.89;92.41;103770.09;5073715;28;20024;-85
2022/01/18 02:42:28;;;;;;;5.97;2.27;;;;;;;3.81;92.63;103763.59;5074056;28;19912;-85
2022/01/18 02:44:54;;;;;;;3.13;2.10;;;;;;;3.83;92.34;103762.03;5074189;28;20545;-86
2022/01/18 02:47:21;;;;;;;2.95;2.30;;;;;;;3.85;92.59;103751.03;5073121;28;20024;-86
2022/01/18 02:49:47;;;;;;;3.92;2.30;;;;;;;3.91;92.54;103758.22;5073994;28;20023;-86
2022/01/18 02:52:13;;;;;;;3.65;2.35;;;;;;;3.89;92.40;103756.38;5074012;28;20032;-86
2022/01/18 02:54:39;;;;;;;5.75;2.20;;;;;;;3.87;92.55;103753.72;5073417;28;20071;-86
2022/01/18 02:57:25;;;;;;;3.97;2.10;;;;;;;3.88;92.96;103755.50;5077494;28;20103;-85
2022/01/18 03:00:06;;;;;;;2.72;2.17;;;;;;;3.91;92.68;103759.91;5094155;28;20032;-86
2022/01/18 03:05:45;;;;;;;3.05;2.17;;;;;;;3.97;92.44;103765.41;5093166;28;20043;-86
2022/01/18 03:08:12;;;;;;;3.55;2.42;;;;;;;3.95;92.74;103767.91;5093047;28;20440;-85
2022/01/18 03:10:38;;;;;;;;;;;;;;;3.99;92.75;103772.44;5094244;28;20439;-85
2022/01/18 03:13:04;;;;;;;5.10;2.33;;;;;;;3.95;92.67;103767.91;5094032;28;19912;-86
2022/01/18 03:15:30;;;;;;;4.25;2.47;;;;;;;3.95;92.52;103760.19;5093120;28;20020;-86
2022/01/18 03:18:08;;;;;;;3.05;2.20;;;;;;;4.00;92.51;103771.59;5093663;28;20081;-86
2022/01/18 03:20:49;;;;;;;4.00;2.10;;;;;;;3.98;92.61;103760.38;5093767;28;20108;-86
2022/01/18 03:23:22;;;;;;;4.63;2.30;;;;;;;3.96;92.94;103763.63;5092820;28;20052;-86
2022/01/18 03:25:59;;;;;;;3.30;2.40;;;;;;;4.00;92.68;103771.59;5093851;28;20073;-86
2022/01/18 03:28:26;;;;;;;3.80;2.50;;;;;;;4.04;92.58;103776.94;5093563;28;20727;-86
2022/01/18 03:30:57;;;;;;;;;;;;;;;4.06;92.64;103772.78;5083811;28;20089;-86
2022/01/18 03:33:28;;;;;;;3.55;2.58;;;;;;;4.03;92.74;103783.78;5093288;28;19916;-86
2022/01/18 03:35:54;;;;;;;7.18;2.70;;;;;;;3.99;92.84;103775.00;5093408;28;20372;-84
2022/01/18 03:38:37;;;;;;;7.45;2.90;;;;;;;3.99;92.74;103774.09;5093246;28;20024;-86
2022/01/18 03:41:03;;;;;;;4.22;2.50;;;;;;;3.98;92.84;103774.88;5093507;28;20063;-86
2022/01/18 03:43:30;;;;;;;5.18;2.80;;;;;;;4.00;92.41;103774.19;5092352;28;20515;-85
2022/01/18 03:46:16;;;;;;;3.33;2.58;;;;;;;4.02;92.61;103775.16;5093541;28;20024;-86
2022/01/18 03:48:49;;;;;;;6.10;2.67;;;;;;;4.01;92.77;103775.97;5092973;28;20032;-86
2022/01/18 03:51:26;;;;;;;2.95;2.30;;;;;;;4.04;92.75;103782.97;5092467;28;20047;-86
2022/01/18 03:53:52;;;;;;;2.92;2.28;;;;;;;4.04;92.72;103782.06;5092522;28;20031;-85
2022/01/18 03:56:17;;;;;;;3.30;2.40;;;;;;;3.99;92.78;103772.44;5092830;28;20028;-86
2022/01/18 03:58:42;;;;;;;3.17;2.22;;;;;;;4.03;92.55;103786.34;5092164;28;20032;-86
2022/01/18 04:01:08;;;;;;;4.78;2.40;;;;;;;3.99;92.69;103781.81;5092075;28;20020;-86
2022/01/18 04:03:33;;;;;;;2.55;2.10;;;;;;;4.05;92.93;103796.72;5093181;28;20043;-86
2022/01/18 04:05:58;;;;;;;3.70;2.30;;;;;;;3.99;92.78;103794.66;5092297;28;20392;-86
2022/01/18 04:08:25;;;;;;;4.00;2.50;;;;;;;4.04;92.69;103800.97;5099325;22;20044;-86
2022/01/18 04:10:52;;;;;;;5.28;2.88;;;;;;;4.05;92.55;103806.97;5089790;28;20036;-86
2022/01/18 04:13:18;;;;;;;6.32;2.65;;;;;;;4.05;93.10;103796.72;5072144;28;20059;-86
2022/01/18 04:16:00;;;;;;;5.00;2.63;;;;;;;4.09;92.75;103803.81;5072258;28;20040;-86
2022/01/18 04:26:58;;;;;;;5.03;2.90;;;;;;;4.08;92.78;103805.47;5072262;28;20435;-86
2022/01/18 04:29:24;;;;;;;4.55;2.75;;;;;;;4.06;92.93;103811.34;5072328;28;20085;-86
2022/01/18 04:32:15;;;;;;;4.70;2.92;;;;;;;4.08;92.70;103810.63;5072520;28;20477;-86
2022/01/18 04:34:40;;;;;;;4.47;2.80;;;;;;;4.04;92.87;103800.97;5072725;28;20032;-86
2022/01/18 04:37:06;;;;;;;6.82;3.00;;;;;;;4.06;92.56;103803.63;5072430;28;20047;-85
2022/01/18 04:39:48;;;;;;;3.80;2.60;;;;;;;4.06;92.91;103807.06;5072156;28;20025;-86
2022/01/18 04:42:19;;;;;;;3.30;2.40;;;;;;;4.06;92.74;103811.34;5072446;28;20021;-86
2022/01/18 04:50:24;;;;;;;5.65;2.80;;;;;;;4.06;92.88;103808.75;5072224;28;20048;-86
2022/01/18 04:52:49;;;;;;;4.40;2.60;;;;;;;4.06;92.82;103813.91;5072630;28;20449;-86
2022/01/18 04:55:17;;;;;;;4.15;2.83;;;;;;;4.02;93.09;103807.69;5071620;28;20112;-86
2022/01/18 04:57:52;;;;;;;4.32;2.72;;;;;;;3.99;92.76;103803.28;5072129;28;20373;-86
2022/01/18 05:00:30;;;;;;;5.40;2.78;;;;;;;3.94;92.94;103806.38;5066316;28;20381;-85
2022/01/18 05:02:58;;;;;;;5.82;2.70;;;;;;;3.96;93.13;103820.16;5072310;28;20029;-86
2022/01/18 05:05:28;;;;;;;3.60;2.72;;;;;;;3.93;92.97;103813.16;5072348;28;20028;-86
2022/01/18 05:07:55;;;;;;;4.13;2.60;;;;;;;3.88;93.02;103809.44;5070913;28;20079;-86
2022/01/18 05:10:23;;;;;;;4.60;2.78;;;;;;;3.92;92.68;103823.38;5073062;28;20139;-86
2022/01/18 05:12:52;;;;;;;3.58;2.67;;;;;;;3.87;92.90;103820.53;5095131;28;20026;-86
2022/01/18 05:23:17;;;;;;;5.50;2.70;;;;;;;3.86;92.86;103834.16;5095509;28;20043;-86
2022/01/18 05:25:45;;;;;;;5.47;3.20;;;;;;;3.83;93.20;103827.13;5087575;28;20025;-86
2022/01/18 05:28:23;;;;;;;8.00;3.60;;;;;;;3.80;93.35;103824.41;5075528;28;20074;-85
2022/01/18 05:30:52;;;;;;;9.00;3.63;;;;;;;3.79;92.98;103816.56;5074530;28;20070;-86
2022/01/18 05:33:18;;;;;;;9.38;3.70;;;;;;;3.78;93.14;103823.41;5075404;28;20480;-86
2022/01/18 05:35:44;;;;;;;8.27;3.20;;;;;;;3.81;93.24;103831.31;5074793;28;20070;-86
2022/01/18 05:38:10;;;;;;;9.35;4.40;;;;;;;3.78;93.38;103823.41;5075391;28;20488;-85
2022/01/18 05:40:36;;;;;;;9.02;4.03;;;;;;;3.74;93.02;103824.00;5075302;28;20028;-86
2022/01/18 05:43:01;;;;;;;7.60;3.60;;;;;;;3.75;92.94;103830.06;5074844;28;20036;-85
2022/01/18 05:45:35;;;;;;;6.47;3.50;;;;;;;3.69;93.22;103810.88;5075117;28;20032;-86
2022/01/18 05:48:01;;;;;;;6.50;3.05;;;;;;;3.68;93.47;103816.81;5075458;28;20561;-86
2022/01/18 05:50:26;;;;;;;9.13;3.15;;;;;;;3.67;93.13;103814.16;5074577;28;20115;-86
2022/01/18 05:52:51;;;;;;;5.13;2.95;;;;;;;3.66;93.47;103812.38;5075258;28;20078;-86
2022/01/18 05:55:17;;;;;;;5.60;2.75;;;;;;;3.71;93.22;103817.00;5074811;28;20031;-86
2022/01/18 05:57:43;;;;;;;7.45;2.95;;;;;;;3.68;93.34;103810.81;5074755;28;20090;-86
2022/01/18 06:00:18;;;;;;;3.72;2.50;;;;;;;3.69;93.26;103820.28;5074804;28;20046;-86
2022/01/18 06:02:51;;;;;;;4.43;2.38;;;;;;;3.64;93.17;103809.72;5075277;28;20033;-86
2022/01/18 06:08:24;;;;;;;2.72;2.08;;;;;;;3.68;93.10;103813.38;5074682;28;20500;-85
2022/01/18 06:10:49;;;;;;;3.03;2.08;;;;;;;3.62;93.12;103808.75;5074383;28;20070;-86
2022/01/18 06:13:15;;;;;;;4.90;2.30;;;;;;;3.68;93.26;103818.50;5074591;28;20024;-85
2022/01/18 06:15:40;;;;;;;4.47;2.58;;;;;;;3.74;93.16;103823.13;5074661;28;20051;-86
2022/01/18 06:18:05;;;;;;;4.38;2.30;;;;;;;3.69;93.28;103815.16;5074150;28;20020;-86
2022/01/18 06:20:32;;;;;;;3.85;2.50;;;;;;;3.75;93.20;103830.91;5074879;28;20500;-86
2022/01/18 06:22:58;;;;;;;5.68;2.45;;;;;;;3.76;93.16;103821.56;5073861;28;20032;-86
2022/01/18 06:25:36;;;;;;;4.68;2.42;;;;;;;3.73;93.47;103824.78;5074274;28;20420;-85
2022/01/18 06:28:01;;;;;;;6.32;2.97;;;;;;;3.71;93.52;103816.13;5074488;28;20023;-86
2022/01/18 06:30:26;;;;;;;6.93;3.00;;;;;;;3.73;93.26;103823.94;5074141;28;20380;-86
2022/01/18 06:32:52;;;;;;;4.82;2.80;;;;;;;3.79;93.26;103822.63;5073990;28;20032;-86
2022/01/18 06:35:18;;;;;;;6.53;2.80;;;;;;;3.81;93.30;103823.59;5073964;28;20031;-86
2022/01/18 06:37:44;;;;;;;6.55;3.00;;;;;;;3.83;93.19;103826.25;5074309;28;20042;-86
2022/01/18 06:40:11;;;;;;;6.22;2.80;;;;;;;3.83;93.15;103818.53;5073289;28;20170;-86
2022/01/18 06:42:36;;;;;;;;;;;;;;;3.84;93.13;103816.06;5074790;28;20437;-86
2022/01/18 06:45:02;;;;;;;4.80;2.70;;;;;;;3.81;93.56;103809.84;5074417;28;19996;-86
2022/01/18 06:47:27;;;;;;;5.53;2.75;;;;;;;3.84;93.28;103813.50;5073838;22;20025;-86
2022/01/18 06:49:52;;;;;;;7.35;3.00;;;;;;;3.85;92.91;103822.97;5011948;28;20117;-86
2022/01/18 06:52:18;;;;;;;6.95;3.00;;;;;;;3.86;93.03;103819.63;4994317;28;20074;-86
2022/01/18 06:54:43;;;;;;;7.82;2.90;;;;;;;3.89;93.21;103818.91;5009770;28;20029;-86
2022/01/18 06:57:08;;;;;;;6.53;3.08;;;;;;;3.89;93.21;103811.19;5013696;28;20113;-86
2022/01/18 06:59:52;;;;;;;7.22;2.90;;;;;;;3.92;93.12;103819.09;5014216;28;20053;-86
2022/01/18 07:02:17;;;;;;;6.95;3.35;;;;;;;3.93;92.90;103820.00;5013831;28;20022;-86
2022/01/18 07:04:42;;;;;;;7.38;2.85;;;;;;;3.96;93.12;103833.00;5014325;28;20018;-86
2022/01/18 07:07:08;;;;;;;5.85;3.10;;;;;;;3.93;93.06;103831.16;5013299;28;20133;-85
2022/01/18 07:09:35;;;;;;;4.35;2.70;;;;;;;3.95;92.97;103828.66;5013836;28;20029;-86
2022/01/18 07:12:08;;;;;;;5.47;3.17;;;;;;;3.96;93.03;103841.63;5014130;28;20029;-84
2022/01/18 07:14:33;;;;;;;6.55;2.90;;;;;;;3.94;92.76;103826.91;5007941;28;20132;-84
2022/01/18 07:16:59;;;;;;;5.72;2.70;;;;;;;3.93;93.09;103826.00;5014151;28;20097;-91
2022/01/18 07:19:52;;;;;;;6.25;2.50;;;;;;;3.97;93.00;103848.53;4994652;28;20129;-83
2022/01/18 07:22:17;;;;;;;6.15;2.75;;;;;;;3.96;92.91;103845.88;4989119;28;20133;-83
2022/01/18 07:24:45;;;;;;;5.07;2.60;;;;;;;3.95;93.07;103838.94;4994006;28;20091;-84
2022/01/18 07:27:12;;;;;;;6.13;2.90;;;;;;;3.98;93.11;103850.31;4994175;28;20022;-87
2022/01/18 07:29:41;;;;;;;6.00;2.85;;;;;;;3.93;93.05;103841.44;4993442;28;20446;-86
2022/01/18 07:32:16;;;;;;;6.38;2.88;;;;;;;4.00;93.05;103858.13;4994288;28;20034;-85
2022/01/18 07:34:54;;;;;;;6.47;2.63;;;;;;;3.97;93.06;103861.41;4993875;28;20031;-84
2022/01/18 07:37:21;;;;;;;5.68;2.70;;;;;;;4.02;92.95;103862.53;4993039;28;20026;-87
2022/01/18 07:39:51;;;;;;;6.07;2.83;;;;;;;4.00;92.93;103853.84;4993851;28;20037;-84
2022/01/18 07:42:17;;;;;;;6.57;2.75;;;;;;;4.05;92.96;103846.44;4992848;28;20023;-84
2022/01/18 07:44:43;;;;;;;4.90;2.60;;;;;;;4.01;93.15;103844.47;4993916;28;20042;-85
2022/01/18 07:47:09;;;;;;;6.97;3.00;;;;;;;4.09;93.14;103860.38;5008198;28;20379;-84
2022/01/18 07:49:49;;;;;;;7.70;3.30;;;;;;;4.00;92.94;103846.13;4993751;28;20170;-85
2022/01/18 07:52:15;;;;;;;5.25;2.80;;;;;;;4.06;93.02;103858.47;4993043;28;20541;-85
2022/01/18 07:54:41;;;;;;;5.43;3.05;;;;;;;4.09;92.88;103857.78;4993835;28;20084;-84
2022/01/18 07:57:06;;;;;;;6.45;2.90;;;;;;;4.06;93.14;103853.34;4992652;28;20034;-84
2022/01/18 07:59:31;;;;;;;6.18;2.90;;;;;;;4.08;92.74;103859.47;4993648;28;20068;-85
2022/01/18 08:01:57;;;;;;;6.47;3.00;;;;;;;4.09;93.04;103860.38;4993728;28;20108;-85
2022/01/18 08:04:22;;;;;;;6.22;3.10;;;;;;;4.13;93.11;103870.00;4992723;28;20023;-85
2022/01/18 08:06:48;;;;;;;6.93;2.75;;;;;;;4.12;93.10;103866.56;4993622;28;20180;-84
2022/01/18 08:09:22;;;;;;;4.93;2.80;;;;;;;4.13;92.79;103865.78;4993489;28;20034;-91
2022/01/18 08:11:48;;;;;;;6.43;2.90;;;;;;;4.06;93.07;103858.47;4993183;28;20080;-87
2022/01/18 08:14:16;;;;;;;4.93;2.70;;;;;;;4.12;93.15;103875.94;4993703;28;20022;-88
2022/01/18 08:16:59;;;;;;;7.03;2.70;;;;;;;4.12;93.23;103873.38;4987576;28;20034;-88
2022/01/18 08:19:25;;;;;;;5.88;3.00;;;;;;;4.15;93.09;103866.75;4973783;28;20034;-89
2022/01/18 08:21:50;;;;;;;6.03;2.70;;;;;;;4.11;92.95;103867.38;4975257;28;20380;-89
2022/01/18 08:24:15;;;;;;;5.55;3.05;;;;;;;4.13;92.96;103863.22;4974243;28;20066;-86
2022/01/18 08:26:41;;;;;;;5.07;2.70;;;;;;;4.14;92.92;103866.66;4974213;28;20038;-88
2022/01/18 08:29:06;;;;;;;5.70;2.80;;;;;;;4.16;92.97;103871.13;4974274;28;20472;-91
2022/01/18 08:31:31;;;;;;;4.65;2.42;;;;;;;4.14;93.21;103862.41;4974155;28;20030;-89
2022/01/18 08:33:57;;;;;;;4.78;2.60;;;;;;;4.11;92.93;103854.50;4974265;28;20041;-88
2022/01/18 08:36:22;;;;;;;6.20;2.90;;;;;;;4.12;93.20;103853.72;4973449;28;20023;-88
2022/01/18 08:38:47;;;;;;;5.57;2.80;;;;;;;4.20;93.23;103850.72;4972909;28;20067;-88
2022/01/18 08:41:12;;;;;;;5.55;2.85;;;;;;;4.22;93.05;103855.16;4974955;28;20034;-88
2022/01/18 08:43:38;;;;;;;5.90;2.58;;;;;;;4.23;93.05;103850.91;4974320;28;20035;-87
2022/01/18 08:46:04;;;;;;;5.22;2.67;;;;;;;4.23;93.04;103850.91;4974274;28;20035;-88
2022/01/18 08:48:54;;;;;;;6.63;2.72;;;;;;;4.27;93.21;103856.31;4985865;28;20053;-88
2022/01/18 08:51:19;;;;;;;5.88;2.63;;;;;;;4.29;92.82;103856.38;4997290;28;20035;-88
2022/01/18 08:53:48;;;;;;;5.45;2.90;;;;;;;4.28;92.64;103859.75;4996707;28;20022;-88
2022/01/18 08:56:17;;;;;;;7.82;2.85;;;;;;;4.30;92.98;103863.31;4996979;28;20026;-88
2022/01/18 08:59:01;;;;;;;4.85;2.45;;;;;;;4.30;93.11;103859.06;4997315;28;20018;-88
2022/01/18 09:01:26;;;;;;;5.00;2.60;;;;;;;4.33;92.93;103860.94;4997665;28;20022;-88
2022/01/18 09:03:52;;;;;;;5.68;2.70;;;;;;;4.39;93.08;103869.00;4997235;28;20113;-88
2022/01/18 09:06:18;;;;;;;6.80;3.00;;;;;;;4.41;93.17;103867.41;4997044;28;20468;-87
2022/01/18 09:08:59;;;;;;;7.15;2.92;;;;;;;4.39;93.25;103856.13;4996739;28;20029;-88
2022/01/18 09:11:26;;;;;;;9.27;3.10;;;;;;;4.45;93.14;103868.47;4997918;28;20060;-87
2022/01/18 09:13:52;;;;;;;;;;;;;;;4.47;93.28;103865.22;4996745;28;20038;-87
2022/01/18 09:16:38;;;;;;;7.45;2.90;;;;;;;4.44;93.04;103871.88;4996581;28;19921;-88
2022/01/18 09:19:04;;;;;;;6.88;2.50;;;;;;;4.47;93.07;103864.31;4996316;28;20133;-87
2022/01/18 09:21:32;;;;;;;5.60;2.70;;;;;;;4.50;93.04;103867.06;4996391;28;20100;-87
2022/01/18 09:24:17;;;;;;;5.78;2.90;;;;;;;4.53;93.22;103874.97;4997841;28;20081;-88
2022/01/18 09:26:43;;;;;;;6.45;2.60;;;;;;;4.54;93.14;103875.84;4997081;28;20041;-88
2022/01/18 09:29:10;;;;;;;6.88;2.80;;;;;;;4.58;92.96;103880.38;4995528;28;20113;-88
2022/01/18 09:31:37;;;;;;;7.47;2.88;;;;;;;4.55;93.00;103865.66;4997381;28;20471;-88
2022/01/18 09:34:15;;;;;;;7.53;2.80;;;;;;;4.57;93.26;103876.03;4996943;28;20037;-88
2022/01/18 09:36:40;;;;;;;5.97;2.65;;;;;;;4.60;93.13;103886.50;4995955;28;20089;-87
2022/01/18 09:39:05;;;;;;;4.50;2.50;;;;;;;4.63;93.20;103887.56;4996306;28;20105;-87
2022/01/18 09:41:36;;;;;;;4.57;2.78;;;;;;;4.63;93.30;103885.00;5000650;28;20026;-88
2022/01/18 09:44:11;;;;;;;7.97;3.00;;;;;;;4.67;93.42;103878.34;5012166;28;20043;-87
2022/01/18 09:46:36;;;;;;;6.75;2.70;;;;;;;4.72;93.26;103883.75;5016200;28;20112;-87
2022/01/18 09:49:02;;;;;;;4.88;2.42;;;;;;;4.75;93.36;103884.81;5014794;28;20134;-87
2022/01/18 09:51:28;;;;;;;6.70;2.60;;;;;;;4.81;93.30;103884.28;5015923;28;20033;-88
2022/01/18 09:53:54;;;;;;;7.13;2.88;;;;;;;4.89;93.29;103889.88;5015652;28;20021;-87
2022/01/18 09:56:20;;;;;;;7.10;3.00;;;;;;;4.94;93.29;103891.91;5015065;28;20084;-88
2022/01/18 09:58:57;;;;;;;5.20;2.60;;;;;;;4.92;93.24;103883.22;5007198;28;20022;-88
2022/01/18 10:01:30;;;;;;;4.70;2.50;;;;;;;5.01;93.37;103884.56;5031180;28;20052;-87
2022/01/18 10:04:25;;;;;;;4.90;2.50;;;;;;;5.10;93.60;103896.25;5031249;28;20056;-87
2022/01/18 10:07:05;;;;;;;4.40;2.53;;;;;;;5.16;93.52;103897.41;5012021;28;20040;-87
2022/01/18 10:09:30;;;;;;;6.10;2.72;;;;;;;5.14;93.32;103888.69;5025624;28;20017;-86
2022/01/18 10:12:08;;;;;;;6.72;2.72;;;;;;;5.28;93.72;103889.47;5026492;28;20025;-88
2022/01/18 10:14:36;;;;;;;6.80;2.97;;;;;;;5.37;93.48;103888.31;5015331;28;20072;-87
2022/01/18 10:17:03;;;;;;;5.97;2.65;;;;;;;5.54;93.61;103894.38;5026120;28;20032;-88
2022/01/18 10:19:36;;;;;;;6.03;2.75;;;;;;;5.68;93.59;103894.25;5034720;28;20018;-88
2022/01/18 10:22:29;;;;;;;6.03;2.90;;;;;;;5.79;93.80;103894.81;5035352;28;20092;-87
2022/01/18 10:24:55;;;;;;;6.15;3.03;;;;;;;5.86;93.87;103894.31;5020059;28;20026;-88
2022/01/18 10:27:28;;;;;;;5.47;2.70;;;;;;;5.93;93.55;103898.13;5015061;28;20025;-88
2022/01/18 10:29:54;;;;;;;6.28;2.95;;;;;;;5.91;93.42;103885.16;5014275;28;20026;-89
2022/01/18 10:32:31;;;;;;;5.72;2.85;;;;;;;6.03;93.49;103888.41;5014063;28;20030;-86
2022/01/18 10:37:33;;;;;;;7.97;3.40;;;;;;;6.10;93.12;103889.63;5014557;28;20030;-89
2022/01/18 10:40:03;;;;;;;9.65;3.58;;;;;;;6.09;93.04;103877.53;5015414;28;20025;-89
2022/01/18 10:42:54;;;;;;;8.27;3.72;;;;;;;6.14;92.96;103882.94;5014639;28;20054;-89
2022/01/18 10:45:30;;;;;;;7.82;3.20;;;;;;;6.13;92.88;103878.59;5014563;28;20050;-89
2022/01/18 10:48:21;;;;;;;7.00;3.60;;;;;;;6.23;92.87;103874.81;5014649;28;20065;-88
2022/01/18 10:50:47;;;;;;;7.35;3.08;;;;;;;6.38;93.09;103869.53;5011894;28;20406;-89
2022/01/18 10:53:24;;;;;;;6.70;2.92;;;;;;;6.51;92.75;103855.53;5013995;28;20018;-88
2022/01/18 10:56:16;;;;;;;7.45;3.28;;;;;;;6.70;92.39;103860.81;5015174;28;20096;-88
2022/01/18 10:58:52;;;;;;;5.82;2.90;;;;;;;6.85;92.44;103860.69;5015074;28;20445;-89
2022/01/18 11:01:34;;;;;;;6.03;3.38;;;;;;;6.94;92.09;103861.16;5014194;28;20030;-88
2022/01/18 11:04:15;;;;;;;7.78;3.40;;;;;;;7.00;91.86;103857.06;5014510;28;20026;-89
2022/01/18 11:06:57;;;;;;;9.50;3.30;;;;;;;7.00;91.61;103839.00;5007888;28;20095;-89
2022/01/18 11:09:24;;;;;;;7.80;3.67;;;;;;;7.06;91.91;103852.22;5013905;28;20033;-88
2022/01/18 11:11:50;;;;;;;5.65;2.80;;;;;;;7.13;91.73;103848.22;5014902;28;20105;-88
2022/01/18 11:14:19;;;;;;;6.28;3.17;;;;;;;7.14;91.11;103845.72;5013640;28;20105;-89
2022/01/18 11:16:46;;;;;;;8.32;3.53;;;;;;;7.17;90.74;103845.84;5014294;28;20036;-88
2022/01/18 11:21:53;;;;;;;8.73;3.53;;;;;;;7.31;91.13;103858.53;5014095;28;20033;-89
2022/01/18 11:24:21;;;;;;;5.57;2.70;;;;;;;7.37;91.14;103851.06;5069324;23;20057;-86
2022/01/18 11:27:06;;;;;;;9.13;3.90;;;;;;;7.40;88.70;103838.31;5053717;28;20466;-86
2022/01/18 11:29:32;;;;;;;8.98;4.03;;;;;;;7.51;90.34;103846.53;5052979;28;20029;-86
2022/01/18 11:31:58;;;;;;;22.38;8.60;;;;;;;7.54;88.55;103839.78;5053673;28;20469;-86
2022/01/18 11:34:29;;;;;;;17.13;6.57;;;;;;;7.57;88.51;103847.69;5052496;28;20040;-90
2022/01/18 11:37:07;;;;;;;16.73;6.25;;;;;;;7.61;88.97;103837.50;5054368;28;20025;-87
2022/01/18 11:39:42;;;;;;;21.80;8.52;;;;;;;7.65;86.59;103835.13;5053827;28;20105;-86
2022/01/18 11:42:14;;;;;;;22.08;8.88;;;;;;;7.66;87.16;103839.47;5052764;28;20029;-85
2022/01/18 11:44:40;;;;;;;17.33;6.88;;;;;;;7.67;86.67;103837.75;5053406;28;20113;-85
2022/01/18 11:47:08;;;;;;;21.77;8.98;;;;;;;7.66;84.21;103836.00;5052746;28;20025;-85
2022/01/18 11:49:34;;;;;;;22.35;9.15;;;;;;;7.67;84.45;103832.59;5052583;28;20049;-85
2022/01/18 11:52:06;;;;;;;19.40;7.65;;;;;;;7.70;86.99;103835.34;5052902;28;20020;-85
2022/01/18 11:54:56;;;;;;;16.80;7.07;;;;;;;7.77;87.67;103829.59;5053135;28;20428;-85
2022/01/18 11:57:25;;;;;;;15.05;5.85;;;;;;;7.83;87.83;103829.00;5052103;28;20025;-84
2022/01/18 12:00:06;;;;;;;11.57;4.90;;;;;;;7.85;87.65;103836.03;5058916;23;20044;-85
2022/01/18 12:02:37;;;;;;;9.30;4.15;;;;;;;7.86;88.06;103830.03;5051925;28;20036;-85
2022/01/18 12:05:14;;;;;;;8.60;3.83;;;;;;;7.93;87.92;103832.88;5053064;28;20107;-86
2022/01/18 12:07:44;;;;;;;8.90;4.13;;;;;;;8.00;88.03;103830.63;5052997;28;20096;-85
2022/01/18 12:10:43;;;;;;;9.32;3.67;;;;;;;8.10;87.61;103818.09;5051876;28;20565;-88
2022/01/18 12:13:22;;;;;;;10.63;3.92;;;;;;;8.18;87.11;103815.03;5046607;28;20405;-87
2022/01/18 12:16:18;;;;;;;9.20;3.83;;;;;;;8.28;86.66;103818.00;5053243;28;20500;-87
2022/01/18 12:18:50;;;;;;;8.83;3.53;;;;;;;8.38;86.23;103811.50;5052594;28;20060;-87
2022/01/18 12:21:20;;;;;;;11.10;3.95;;;;;;;8.40;81.95;103813.34;5052105;28;20275;-87
2022/01/18 12:23:45;;;;;;;11.73;4.00;;;;;;;8.33;83.31;103814.78;5055006;28;20747;-87
2022/01/18 12:29:22;;;;;;;13.98;4.70;;;;;;;8.28;84.54;103811.09;5054106;28;20037;-88
2022/01/18 12:34:25;;;;;;;7.97;3.30;;;;;;;8.41;85.13;103803.84;5052023;28;20078;-88
2022/01/18 12:40:05;;;;;;;6.45;2.88;;;;;;;8.52;85.70;103802.63;5043155;28;20025;-92
2022/01/18 12:45:11;;;;;;;8.63;3.58;;;;;;;8.59;83.45;103793.41;5051732;28;20131;-91
2022/01/18 12:47:41;;;;;;;10.03;3.80;;;;;;;8.64;84.92;103791.91;5053363;28;20051;-88
2022/01/18 12:50:10;;;;;;;7.68;3.42;;;;;;;8.65;83.74;103788.50;5052949;28;20047;-91
2022/01/18 12:52:52;;;;;;;16.27;5.05;;;;;;;8.67;79.18;103783.34;5033611;28;20017;-91
2022/01/18 12:55:45;;;;;;;14.82;4.40;;;;;;;8.71;82.55;103775.78;5032822;28;20080;-83
2022/01/18 12:58:35;;;;;;;8.05;3.55;;;;;;;8.78;83.88;103777.78;5033270;28;20080;-91
2022/01/18 13:01:28;;;;;;;7.50;3.15;;;;;;;8.85;83.05;103773.72;5028635;28;20127;-90
2022/01/18 13:04:14;;;;;;;7.88;3.00;;;;;;;8.86;82.74;103762.53;5033366;28;20038;-90
2022/01/18 13:06:40;;;;;;;5.53;3.00;;;;;;;8.90;81.87;103763.53;5032666;28;20025;-89
2022/01/18 13:09:05;;;;;;;6.17;2.83;;;;;;;8.93;82.93;103764.56;5032966;28;20355;-90
2022/01/18 13:11:42;;;;;;;5.50;3.10;;;;;;;8.97;81.63;103757.78;5052539;28;20034;-89
2022/01/18 13:14:15;;;;;;;6.40;2.83;;;;;;;9.00;83.53;103763.09;5051715;28;20060;-89
2022/01/18 13:25:13;;;;;;;10.07;3.30;;;;;;;9.01;78.79;103756.19;5081294;28;20036;-89
2022/01/18 13:27:43;;;;;;;11.80;3.85;;;;;;;8.91;81.78;103747.16;5073134;28;20028;-89